Time;durP1;ratioP1;P1;durP2;ratioP2;P2;SDS_P1;SDS_P2;PMS_P1;PMS_P2;Temp;Humidity;BMP_temperature;BMP_pressure;BME280_temperature;BME280_humidity;BME280_pressure;Samples;Min_cycle;Max_cycle;Signal;HPM_P1;HPM_P2
2021/06/19 00:02:09;;;;;;;13.20;10.98;;;;;;;17.07;78.35;98196.72;1774619;80;20941;-74
2021/06/19 00:04:35;;;;;;;14.10;10.00;;;;;;;17.04;77.91;98193.27;1774572;80;20871;-74
2021/06/19 00:07:03;;;;;;;12.37;10.05;;;;;;;16.98;77.93;98192.59;1711144;83;21442;-75
2021/06/19 00:09:29;;;;;;;16.23;10.15;;;;;;;16.91;78.00;98193.05;1716461;83;21468;-73
2021/06/19 00:11:55;;;;;;;13.32;9.38;;;;;;;16.87;78.08;98193.45;1717503;82;21898;-74
2021/06/19 00:14:22;;;;;;;17.65;9.53;;;;;;;16.82;77.99;98200.42;1718798;82;20965;-74
2021/06/19 00:16:48;;;;;;;10.65;8.93;;;;;;;16.78;78.23;98205.48;1718918;83;21481;-74
2021/06/19 00:19:15;;;;;;;11.35;9.95;;;;;;;16.73;78.03;98205.05;1718753;83;20922;-74
2021/06/19 00:21:42;;;;;;;13.72;10.72;;;;;;;16.68;78.40;98201.06;1719055;83;21082;-75
2021/06/19 00:24:09;;;;;;;12.55;8.90;;;;;;;16.68;77.71;98206.55;1738371;82;21892;-74
2021/06/19 00:26:37;;;;;;;13.28;9.90;;;;;;;16.69;77.58;98204.64;1788904;80;21402;-74
2021/06/19 00:29:03;;;;;;;10.93;9.28;;;;;;;16.61;78.34;98200.14;1788635;79;21017;-74
2021/06/19 00:31:29;;;;;;;9.93;8.58;;;;;;;16.53;78.53;98199.54;1718931;83;21032;-74
2021/06/19 00:33:56;;;;;;;14.85;9.05;;;;;;;16.50;78.09;98198.81;1738386;82;20957;-74
2021/06/19 00:36:22;;;;;;;13.32;9.25;;;;;;;16.45;79.11;98197.56;1788677;80;21286;-74
2021/06/19 00:38:48;;;;;;;12.37;9.43;;;;;;;16.47;78.32;98194.52;1719170;83;20982;-74
2021/06/19 00:41:14;;;;;;;10.50;8.38;;;;;;;16.44;77.97;98189.68;1748809;82;20886;-75
2021/06/19 00:43:40;;;;;;;13.40;9.35;;;;;;;16.38;80.26;98188.19;1748506;82;20870;-74
2021/06/19 00:46:07;;;;;;;12.98;9.23;;;;;;;16.47;78.38;98192.58;1719630;83;20993;-75
2021/06/19 00:48:33;;;;;;;11.57;9.60;;;;;;;16.40;79.33;98189.48;1718897;82;22026;-74
2021/06/19 00:50:59;;;;;;;10.43;9.10;;;;;;;16.41;79.26;98196.59;1718979;82;21001;-74
2021/06/19 00:53:25;;;;;;;11.63;9.70;;;;;;;16.34;79.89;98192.13;1718942;82;20940;-74
2021/06/19 00:55:51;;;;;;;11.83;8.50;;;;;;;16.29;79.30;98194.41;1719010;83;20846;-75
2021/06/19 00:58:17;;;;;;;12.20;9.28;;;;;;;16.23;79.61;98193.48;1718728;82;21112;-74
2021/06/19 01:00:43;;;;;;;12.53;9.40;;;;;;;16.17;79.33;98191.45;1719019;82;21998;-74
2021/06/19 01:03:09;;;;;;;13.98;9.28;;;;;;;16.19;79.77;98199.34;1718950;82;20910;-74
2021/06/19 01:05:35;;;;;;;10.68;8.60;;;;;;;16.18;78.39;98196.36;1719067;83;21033;-74
2021/06/19 01:08:01;;;;;;;11.08;9.33;;;;;;;16.14;78.40;98194.80;1719012;82;20909;-74
2021/06/19 01:10:27;;;;;;;11.20;8.93;;;;;;;16.11;78.73;98184.49;1690043;83;21435;-74
2021/06/19 01:12:54;;;;;;;13.18;9.43;;;;;;;16.11;80.51;98185.05;1690369;83;21178;-74
2021/06/19 01:15:20;;;;;;;11.05;8.88;;;;;;;16.16;79.54;98183.01;1718732;82;21414;-74
2021/06/19 01:17:46;;;;;;;14.43;9.13;;;;;;;16.16;79.39;98189.04;1718829;83;21060;-74
2021/06/19 01:20:16;;;;;;;11.68;7.53;;;;;;;16.19;79.39;98187.84;1718865;82;21323;-74
2021/06/19 01:22:54;;;;;;;12.55;9.10;;;;;;;16.18;78.77;98190.33;1719261;82;21438;-74
2021/06/19 01:25:25;;;;;;;14.73;9.27;;;;;;;16.20;78.88;98183.98;1719161;82;21760;-74
2021/06/19 01:27:53;;;;;;;12.07;9.88;;;;;;;16.22;78.38;98187.77;1719126;82;20993;-74
2021/06/19 01:30:22;;;;;;;17.92;10.13;;;;;;;16.19;79.68;98182.94;1718858;82;20965;-74
2021/06/19 01:32:48;;;;;;;12.05;9.60;;;;;;;16.17;80.22;98179.72;1738105;82;21000;-75
2021/06/19 01:35:14;;;;;;;13.03;9.20;;;;;;;16.07;79.22;98184.32;1738671;82;20918;-75
2021/06/19 01:37:45;;;;;;;10.85;9.05;;;;;;;16.04;78.79;98187.66;1719032;83;22028;-75
2021/06/19 01:40:19;;;;;;;10.43;9.25;;;;;;;15.97;79.17;98191.38;1738544;82;21029;-73
2021/06/19 01:42:46;;;;;;;11.85;8.88;;;;;;;15.90;79.49;98192.95;1717386;83;20973;-75
2021/06/19 01:45:25;;;;;;;10.20;8.45;;;;;;;15.85;79.21;98195.23;1738195;82;20941;-75
2021/06/19 01:47:51;;;;;;;11.70;8.88;;;;;;;15.84;78.98;98190.89;1787472;80;21402;-74
2021/06/19 01:50:22;;;;;;;10.93;8.05;;;;;;;15.76;79.60;98190.27;1788737;80;21266;-74
2021/06/19 01:52:49;;;;;;;13.03;9.20;;;;;;;15.71;79.93;98191.17;1787966;80;21044;-75
2021/06/19 01:55:15;;;;;;;12.15;9.80;;;;;;;15.73;79.24;98188.97;1788542;80;20914;-75
2021/06/19 01:57:41;;;;;;;12.88;9.70;;;;;;;15.72;79.08;98192.82;1788934;80;21421;-75
2021/06/19 02:00:18;;;;;;;13.72;10.88;;;;;;;15.70;79.30;98192.86;1788671;79;21468;-75
2021/06/19 02:02:44;;;;;;;13.90;10.82;;;;;;;15.64;79.14;98186.72;1789029;80;21128;-75
2021/06/19 02:05:12;;;;;;;11.90;9.63;;;;;;;15.57;79.22;98186.86;1788705;80;20889;-75
2021/06/19 02:07:53;;;;;;;14.25;9.23;;;;;;;15.53;79.56;98182.56;1719016;83;20993;-75
2021/06/19 02:10:24;;;;;;;12.03;9.03;;;;;;;15.45;80.21;98193.65;1718721;83;21018;-74
2021/06/19 02:12:50;;;;;;;10.72;9.48;;;;;;;15.40;79.53;98182.05;1737668;82;21394;-75
2021/06/19 02:15:17;;;;;;;12.05;8.45;;;;;;;15.32;79.39;98185.50;1788605;80;21067;-74
2021/06/19 02:17:43;;;;;;;9.73;8.58;;;;;;;15.31;79.64;98180.61;1788750;80;20965;-75
2021/06/19 02:20:11;;;;;;;11.15;9.63;;;;;;;15.33;79.95;98178.93;1788592;80;20960;-74
2021/06/19 02:22:37;;;;;;;11.33;8.45;;;;;;;15.30;81.26;98179.55;1719094;83;21033;-75
2021/06/19 02:25:06;;;;;;;10.63;8.95;;;;;;;15.26;80.54;98179.34;1738233;82;20961;-74
2021/06/19 02:27:31;;;;;;;11.78;8.18;;;;;;;15.26;79.93;98182.06;1788814;80;21031;-74
2021/06/19 02:29:58;;;;;;;9.13;8.13;;;;;;;15.24;79.78;98185.11;1788662;80;20905;-74
2021/06/19 02:32:24;;;;;;;13.68;9.98;;;;;;;15.17;79.66;98182.54;1788854;80;21024;-75
2021/06/19 02:34:51;;;;;;;12.53;9.73;;;;;;;15.14;79.49;98189.98;1718888;83;20981;-74
2021/06/19 02:37:17;;;;;;;11.65;9.73;;;;;;;15.07;79.07;98182.76;1749411;82;21438;-74
2021/06/19 02:39:43;;;;;;;10.28;9.28;;;;;;;15.07;79.49;98186.30;1718805;82;21721;-74
2021/06/19 02:42:09;;;;;;;10.18;9.08;;;;;;;15.09;79.97;98185.98;1718986;83;20890;-75
2021/06/19 02:44:35;;;;;;;9.60;8.68;;;;;;;15.06;81.11;98188.77;1719005;82;20965;-74
2021/06/19 02:47:01;;;;;;;10.53;8.95;;;;;;;15.08;80.98;98196.09;1690591;83;20894;-74
2021/06/19 02:49:27;;;;;;;11.57;9.58;;;;;;;15.09;80.34;98191.44;1718832;82;20957;-74
2021/06/19 02:51:53;;;;;;;11.75;8.93;;;;;;;15.09;80.04;98192.80;1719117;82;21109;-75
2021/06/19 02:54:19;;;;;;;13.40;10.25;;;;;;;15.08;81.36;98192.56;1718785;82;20889;-74
2021/06/19 02:56:45;;;;;;;13.25;10.35;;;;;;;15.19;81.57;98194.76;1738650;82;20979;-75
2021/06/19 02:59:11;;;;;;;11.73;9.43;;;;;;;15.38;81.09;98197.38;1788830;80;20862;-74
2021/06/19 03:01:36;;;;;;;22.73;10.68;;;;;;;15.49;81.66;98202.05;1719121;83;20984;-75
2021/06/19 03:04:03;;;;;;;10.93;9.25;;;;;;;15.55;82.58;98202.73;1738532;82;21901;-75
2021/06/19 03:06:29;;;;;;;12.10;9.78;;;;;;;15.64;81.60;98205.04;1718937;83;21091;-74
2021/06/19 03:08:55;;;;;;;13.15;8.60;;;;;;;15.67;81.02;98199.75;1738321;82;20940;-74
2021/06/19 03:11:21;;;;;;;11.18;9.03;;;;;;;15.63;80.67;98203.39;1737548;82;21426;-75
2021/06/19 03:13:47;;;;;;;9.70;8.70;;;;;;;15.59;80.53;98203.74;1737643;82;21111;-74
2021/06/19 03:16:14;;;;;;;11.30;9.20;;;;;;;15.57;80.48;98202.69;1734340;82;21976;-74
2021/06/19 03:18:40;;;;;;;14.43;9.08;;;;;;;15.53;80.28;98203.84;1768012;80;21398;-74
2021/06/19 03:21:06;;;;;;;11.20;8.70;;;;;;;15.51;79.93;98205.28;1734022;82;20908;-75
2021/06/19 03:23:32;;;;;;;9.93;8.43;;;;;;;15.49;80.19;98204.78;1734264;82;20906;-74
2021/06/19 03:25:58;;;;;;;9.58;8.28;;;;;;;15.56;80.71;98207.10;1734239;82;20975;-74
2021/06/19 03:28:30;;;;;;;11.05;9.20;;;;;;;15.62;79.74;98208.05;1767848;81;21337;-74
2021/06/19 03:30:56;;;;;;;10.65;8.88;;;;;;;15.70;79.81;98214.71;1767949;80;21005;-75
2021/06/19 03:33:22;;;;;;;12.45;8.58;;;;;;;15.75;80.34;98215.41;1768273;81;20889;-74
2021/06/19 03:35:48;;;;;;;11.83;10.58;;;;;;;15.83;80.23;98216.61;1734294;82;20937;-74
2021/06/19 03:38:14;;;;;;;16.07;12.65;;;;;;;15.87;80.05;98219.52;1768401;81;21032;-74
2021/06/19 03:40:40;;;;;;;19.30;13.83;;;;;;;15.89;79.42;98222.73;1734155;82;20980;-74
2021/06/19 03:43:07;;;;;;;18.17;13.32;;;;;;;15.88;79.33;98220.56;1768276;81;21445;-74
2021/06/19 03:45:37;;;;;;;17.30;11.78;;;;;;;15.88;79.19;98219.20;1734041;82;20969;-74
2021/06/19 03:48:05;;;;;;;11.05;9.95;;;;;;;15.96;78.81;98223.13;1704902;84;21004;-74
2021/06/19 03:50:30;;;;;;;13.55;10.00;;;;;;;16.05;78.65;98219.33;1768221;81;21406;-74
2021/06/19 03:52:57;;;;;;;18.32;9.83;;;;;;;16.14;78.31;98218.59;1768153;81;21133;-74
2021/06/19 03:55:24;;;;;;;11.80;10.18;;;;;;;16.21;78.41;98220.33;1768082;80;21009;-74
2021/06/19 03:57:50;;;;;;;18.52;13.35;;;;;;;16.31;78.03;98215.41;1734499;82;21397;-74
2021/06/19 04:00:17;;;;;;;15.85;12.85;;;;;;;16.36;78.13;98213.92;1734134;82;20837;-74
2021/06/19 04:02:44;;;;;;;16.15;12.40;;;;;;;16.47;78.39;98215.02;1704923;84;20988;-74
2021/06/19 04:05:12;;;;;;;12.80;11.45;;;;;;;16.57;78.31;98215.55;1767826;81;21188;-74
2021/06/19 04:07:39;;;;;;;;;;;;;;;16.75;77.82;98211.56;1736876;82;20981;-74
2021/06/19 04:10:06;;;;;;;11.25;10.03;;;;;;;16.86;77.67;98214.30;1749876;81;20219;-75
2021/06/19 04:12:33;;;;;;;19.13;10.70;;;;;;;17.00;77.19;98210.06;1754921;81;21009;-75
2021/06/19 04:14:59;;;;;;;16.07;10.95;;;;;;;17.15;76.87;98210.44;1754757;81;20985;-75
2021/06/19 04:17:25;;;;;;;13.10;10.18;;;;;;;17.33;76.74;98215.95;1727139;81;21247;-75
2021/06/19 04:19:51;;;;;;;11.83;9.80;;;;;;;17.45;76.19;98212.86;1754987;81;20945;-75
2021/06/19 04:22:17;;;;;;;13.50;11.08;;;;;;;17.57;75.84;98214.16;1754772;81;20858;-75
2021/06/19 04:24:43;;;;;;;11.70;10.50;;;;;;;17.73;75.49;98212.02;1754735;81;20930;-75
2021/06/19 04:27:14;;;;;;;11.68;9.15;;;;;;;17.87;75.50;98205.59;1754911;81;21501;-75
2021/06/19 04:29:40;;;;;;;10.60;9.45;;;;;;;18.03;75.05;98202.58;1753963;81;21319;-75
2021/06/19 04:32:07;;;;;;;13.98;9.40;;;;;;;18.15;74.84;98197.25;1754905;81;20992;-75
2021/06/19 04:34:33;;;;;;;10.80;8.58;;;;;;;18.29;74.52;98188.86;1754968;80;20946;-75
2021/06/19 04:36:59;;;;;;;11.25;9.30;;;;;;;18.44;74.24;98193.80;1754866;81;20862;-76
2021/06/19 04:39:25;;;;;;;12.37;9.90;;;;;;;18.53;73.93;98187.72;1754686;81;20957;-75
2021/06/19 04:41:55;;;;;;;11.93;10.70;;;;;;;18.74;73.60;98184.31;1754892;81;21005;-76
2021/06/19 04:44:26;;;;;;;14.55;10.40;;;;;;;18.94;73.18;98184.94;1752043;80;21027;-75
2021/06/19 04:46:47;;;;;;;10.13;9.13;;;;;;;19.03;72.84;98191.76;1754399;81;21563;-75
2021/06/19 04:49:13;;;;;;;11.03;9.75;;;;;;;19.10;72.56;98190.11;1754780;80;20926;-75
2021/06/19 04:51:39;;;;;;;12.13;9.85;;;;;;;19.22;72.11;98197.63;1754764;81;21084;-75
2021/06/19 04:54:06;;;;;;;10.72;9.00;;;;;;;19.39;72.04;98186.53;1754802;81;21172;-75
2021/06/19 04:56:32;;;;;;;11.80;9.25;;;;;;;19.58;71.83;98189.45;1754660;81;20938;-75
2021/06/19 04:59:01;;;;;;;12.50;9.58;;;;;;;19.84;71.09;98190.62;1754756;81;21445;-75
2021/06/19 05:01:28;;;;;;;12.18;9.40;;;;;;;19.97;70.56;98187.58;1754794;81;21012;-75
2021/06/19 05:03:54;;;;;;;14.43;10.50;;;;;;;20.11;70.18;98189.25;1754759;81;20929;-75
2021/06/19 05:06:20;;;;;;;13.60;9.58;;;;;;;20.22;69.42;98184.35;1726766;81;51392;-75
2021/06/19 05:08:47;;;;;;;11.05;9.50;;;;;;;20.33;69.04;98183.92;1754948;81;20944;-75
2021/06/19 05:11:12;;;;;;;13.15;9.48;;;;;;;20.47;68.26;98185.27;1780212;80;20954;-75
2021/06/19 05:13:39;;;;;;;11.40;9.75;;;;;;;20.52;68.71;98182.88;1786140;80;20906;-75
2021/06/19 05:16:04;;;;;;;11.22;8.73;;;;;;;20.70;68.06;98181.53;1785826;80;20914;-75
2021/06/19 05:18:31;;;;;;;16.80;10.35;;;;;;;20.88;66.77;98179.94;1785909;80;21310;-75
2021/06/19 05:20:56;;;;;;;15.00;9.95;;;;;;;20.93;66.36;98176.94;1786054;80;20946;-75
2021/06/19 05:23:22;;;;;;;17.45;9.98;;;;;;;21.02;66.27;98175.70;1786023;80;20954;-75
2021/06/19 05:25:49;;;;;;;15.38;9.63;;;;;;;21.19;65.57;98168.33;1785813;80;21407;-75
2021/06/19 05:28:16;;;;;;;13.20;9.98;;;;;;;21.27;65.60;98166.05;1786073;80;21438;-75
2021/06/19 05:30:42;;;;;;;15.67;9.60;;;;;;;21.31;65.10;98168.36;1785995;80;21085;-74
2021/06/19 05:33:08;;;;;;;18.60;10.35;;;;;;;21.36;65.10;98173.63;1785926;80;20976;-74
2021/06/19 05:35:34;;;;;;;14.78;9.55;;;;;;;21.50;65.33;98167.75;1785822;80;20921;-74
2021/06/19 05:38:00;;;;;;;11.60;9.53;;;;;;;21.68;64.43;98169.88;1785889;80;21499;-74
2021/06/19 05:40:26;;;;;;;14.87;9.90;;;;;;;21.79;63.74;98169.39;1785822;80;20862;-74
2021/06/19 05:42:53;;;;;;;12.07;10.18;;;;;;;21.86;63.76;98162.70;1716452;83;21167;-74
2021/06/19 05:45:19;;;;;;;13.32;10.68;;;;;;;22.00;63.18;98168.64;1738354;82;20996;-74
2021/06/19 05:47:45;;;;;;;12.30;10.32;;;;;;;22.03;63.36;98165.16;1738712;82;20905;-75
2021/06/19 05:50:11;;;;;;;12.50;9.18;;;;;;;22.13;63.14;98169.41;1687796;83;20905;-74
2021/06/19 05:52:37;;;;;;;10.90;9.00;;;;;;;22.29;63.07;98168.87;1738733;82;21456;-75
2021/06/19 05:55:05;;;;;;;10.65;8.98;;;;;;;22.45;62.83;98178.56;1738497;82;21084;-74
2021/06/19 05:57:31;;;;;;;10.05;9.00;;;;;;;22.64;61.95;98169.58;1716384;83;21446;-74
2021/06/19 05:59:57;;;;;;;8.93;8.03;;;;;;;22.73;62.28;98166.89;1709039;82;21605;-74
2021/06/19 06:02:23;;;;;;;10.15;9.13;;;;;;;22.88;62.69;98167.27;1738609;82;20885;-75
2021/06/19 06:04:49;;;;;;;9.55;7.80;;;;;;;23.12;62.21;98171.22;1716182;83;21029;-74
2021/06/19 06:07:15;;;;;;;11.50;8.23;;;;;;;23.32;61.40;98161.00;1709378;82;21145;-74
2021/06/19 06:09:41;;;;;;;13.45;8.88;;;;;;;23.49;61.37;98167.52;1716294;83;20890;-74
2021/06/19 06:12:09;;;;;;;9.83;8.10;;;;;;;23.72;60.67;98166.86;1738586;82;20940;-74
2021/06/19 06:14:36;;;;;;;10.13;8.03;;;;;;;23.93;58.98;98168.71;1738798;82;20957;-74
2021/06/19 06:17:02;;;;;;;10.85;8.13;;;;;;;23.94;58.45;98169.51;1716136;83;20962;-74
2021/06/19 06:19:28;;;;;;;8.45;7.42;;;;;;;23.92;58.55;98174.00;1738481;82;21165;-74
2021/06/19 06:21:54;;;;;;;9.35;7.83;;;;;;;24.01;58.61;98166.27;1738588;82;20913;-74
2021/06/19 06:24:20;;;;;;;10.68;8.20;;;;;;;24.20;58.94;98166.28;1716403;83;20946;-74
2021/06/19 06:26:46;;;;;;;12.10;7.30;;;;;;;24.44;58.29;98168.52;1738640;82;20905;-74
2021/06/19 06:29:12;;;;;;;13.30;7.53;;;;;;;24.62;57.96;98168.28;1738717;82;21508;-74
2021/06/19 06:31:38;;;;;;;8.30;7.40;;;;;;;24.76;57.52;98160.20;1716582;83;21333;-75
2021/06/19 06:34:04;;;;;;;8.78;7.15;;;;;;;24.91;56.95;98166.78;1738678;82;20825;-74
2021/06/19 06:36:30;;;;;;;10.05;7.12;;;;;;;24.96;56.21;98166.48;1746155;81;20993;-74
2021/06/19 06:39:03;;;;;;;9.50;6.50;;;;;;;24.93;55.59;98161.67;1716297;82;20938;-74
2021/06/19 06:41:27;;;;;;;7.47;6.65;;;;;;;24.93;54.93;98156.13;1716111;83;21036;-75
2021/06/19 06:43:53;;;;;;;10.90;7.58;;;;;;;24.89;55.99;98152.51;1716445;82;21328;-75
2021/06/19 06:46:19;;;;;;;11.05;7.78;;;;;;;25.16;55.78;98153.95;1716413;83;20870;-75
2021/06/19 06:48:45;;;;;;;11.15;8.50;;;;;;;25.38;54.84;98148.11;1716289;82;21387;-75
2021/06/19 06:51:11;;;;;;;14.25;7.58;;;;;;;25.53;54.25;98145.76;1716342;83;20970;-75
2021/06/19 06:53:37;;;;;;;11.65;7.87;;;;;;;25.56;53.03;98145.03;1716937;82;20953;-75
2021/06/19 06:56:04;;;;;;;10.18;7.28;;;;;;;25.77;54.08;98142.55;1746137;82;21347;-76
2021/06/19 06:58:29;;;;;;;10.88;8.05;;;;;;;26.07;52.68;98143.13;1716233;82;20946;-75
2021/06/19 07:00:55;;;;;;;17.48;7.72;;;;;;;26.08;53.14;98142.73;1716687;82;20838;-75
2021/06/19 07:03:23;;;;;;;8.78;6.30;;;;;;;26.25;53.40;98145.50;1688123;82;20855;-75
2021/06/19 07:05:49;;;;;;;14.07;6.70;;;;;;;26.48;52.77;98145.95;1746304;82;21041;-75
2021/06/19 07:08:15;;;;;;;8.18;5.90;;;;;;;26.53;51.83;98150.58;1716368;82;21877;-75
2021/06/19 07:10:41;;;;;;;6.58;5.78;;;;;;;26.63;52.17;98154.05;1685153;84;21034;-76
2021/06/19 07:13:07;;;;;;;9.00;6.92;;;;;;;26.78;51.87;98150.81;1710807;82;21065;-75
2021/06/19 07:15:33;;;;;;;9.25;6.08;;;;;;;27.02;50.55;98146.64;1710962;84;20826;-75
2021/06/19 07:17:59;;;;;;;10.03;6.85;;;;;;;27.03;50.33;98142.70;1680786;83;21056;-75
2021/06/19 07:20:25;;;;;;;8.45;5.87;;;;;;;27.26;50.99;98142.45;1710723;84;21823;-76
2021/06/19 07:22:51;;;;;;;7.85;4.85;;;;;;;27.65;50.55;98145.48;1740526;82;21557;-75
2021/06/19 07:25:17;;;;;;;5.47;4.78;;;;;;;27.94;48.27;98140.86;1774484;80;20949;-75
2021/06/19 07:27:43;;;;;;;5.58;4.97;;;;;;;27.98;45.86;98144.47;1774772;80;21017;-76
2021/06/19 07:30:11;;;;;;;6.20;4.60;;;;;;;28.17;46.36;98143.93;1710885;83;21382;-75
2021/06/19 07:32:37;;;;;;;5.33;3.67;;;;;;;28.48;45.45;98134.09;1774942;80;21496;-76
2021/06/19 07:35:07;;;;;;;6.05;4.92;;;;;;;28.59;44.43;98130.11;1774440;80;20870;-76
2021/06/19 07:37:33;;;;;;;7.62;4.08;;;;;;;28.63;42.42;98130.14;1774312;80;21017;-75
2021/06/19 07:39:59;;;;;;;5.45;4.22;;;;;;;28.99;41.45;98126.78;1774669;80;20835;-76
2021/06/19 07:42:24;;;;;;;7.20;4.47;;;;;;;29.40;41.73;98129.92;1774555;80;20883;-75
2021/06/19 07:44:50;;;;;;;8.43;5.65;;;;;;;29.77;38.08;98132.22;1774575;80;21911;-75
2021/06/19 07:47:16;;;;;;;6.45;5.15;;;;;;;30.39;40.61;98127.95;1710808;84;21797;-76
2021/06/19 07:49:42;;;;;;;6.50;4.45;;;;;;;30.76;39.27;98136.30;1710889;83;20949;-76
2021/06/19 07:52:08;;;;;;;7.42;4.53;;;;;;;31.20;38.88;98123.55;1680696;84;21009;-76
2021/06/19 07:54:37;;;;;;;5.67;5.08;;;;;;;31.59;39.71;98119.75;1711325;83;20850;-75
2021/06/19 07:57:06;;;;;;;6.53;4.67;;;;;;;31.86;38.06;98122.66;1710884;83;21260;-76
2021/06/19 07:59:33;;;;;;;6.75;5.78;;;;;;;32.12;39.13;98118.31;1710573;83;20918;-76
2021/06/19 08:02:00;;;;;;;10.30;4.90;;;;;;;32.50;39.69;98118.23;1711102;83;21391;-76
2021/06/19 08:04:27;;;;;;;7.33;5.37;;;;;;;32.47;38.63;98113.45;1710900;83;20931;-76
2021/06/19 08:06:53;;;;;;;7.08;5.33;;;;;;;32.59;38.78;98104.46;1774567;80;20915;-76
2021/06/19 08:09:19;;;;;;;6.03;5.42;;;;;;;33.12;38.32;98099.99;1774642;80;21303;-76
2021/06/19 08:11:45;;;;;;;10.08;6.20;;;;;;;33.33;38.05;98103.03;1780177;80;21388;-76
2021/06/19 08:14:11;;;;;;;10.95;5.83;;;;;;;33.54;37.94;98099.83;1752260;80;20996;-76
2021/06/19 08:16:37;;;;;;;7.35;6.15;;;;;;;33.50;36.72;98091.28;1783067;80;21028;-76
2021/06/19 08:19:03;;;;;;;11.33;5.33;;;;;;;34.01;37.68;98095.47;1783006;80;21001;-76
2021/06/19 08:21:29;;;;;;;6.25;4.78;;;;;;;34.00;35.51;98098.10;1782889;79;21174;-76
2021/06/19 08:23:56;;;;;;;5.92;5.33;;;;;;;34.41;36.08;98098.23;1719192;83;20965;-76
2021/06/19 08:26:22;;;;;;;7.40;4.53;;;;;;;34.44;33.99;98095.94;1738475;82;21339;-76
2021/06/19 08:28:48;;;;;;;6.22;4.08;;;;;;;33.80;35.08;98098.10;1718846;83;20945;-76
2021/06/19 08:31:14;;;;;;;8.08;4.65;;;;;;;33.86;35.40;98090.75;1738895;82;20873;-76
2021/06/19 08:33:40;;;;;;;6.10;4.20;;;;;;;34.09;34.05;98093.30;1788577;80;21362;-76
2021/06/19 08:36:07;;;;;;;6.40;4.42;;;;;;;34.10;33.26;98091.48;1718881;83;20922;-76
2021/06/19 08:38:33;;;;;;;4.92;3.85;;;;;;;34.61;32.79;98089.71;1738246;82;20944;-76
2021/06/19 08:40:59;;;;;;;6.08;4.42;;;;;;;35.07;31.72;98092.81;1788646;80;20838;-76
2021/06/19 08:43:25;;;;;;;17.00;5.05;;;;;;;35.30;32.32;98091.20;1728461;80;20910;-76
2021/06/19 08:45:52;;;;;;;9.68;4.67;;;;;;;35.96;31.99;98084.73;1759905;80;21724;-76
2021/06/19 08:48:20;;;;;;;10.10;5.90;;;;;;;35.67;30.56;98091.02;1719059;83;21219;-76
2021/06/19 08:50:46;;;;;;;6.80;4.05;;;;;;;36.36;30.44;98091.41;1738445;82;20977;-76
2021/06/19 08:53:12;;;;;;;4.70;4.30;;;;;;;35.48;31.72;98085.09;1718840;83;21039;-76
2021/06/19 08:55:38;;;;;;;5.15;4.35;;;;;;;36.19;31.13;98092.10;1738444;82;21040;-77
2021/06/19 08:58:05;;;;;;;5.60;4.28;;;;;;;35.61;30.12;98087.95;1788577;80;21064;-76
2021/06/19 09:00:31;;;;;;;6.37;4.60;;;;;;;36.28;30.26;98087.98;1718949;83;21089;-77
2021/06/19 09:02:57;;;;;;;5.33;3.92;;;;;;;35.96;30.83;98088.96;1718647;83;20882;-77
2021/06/19 09:05:29;;;;;;;6.78;4.12;;;;;;;37.25;27.75;98085.63;1748821;82;21080;-76
2021/06/19 09:07:56;;;;;;;5.33;4.08;;;;;;;37.13;28.61;98079.41;1690427;83;20926;-75
2021/06/19 09:10:34;;;;;;;12.28;4.40;;;;;;;37.36;28.71;98078.23;1718599;82;21243;-75
2021/06/19 09:13:15;;;;;;;7.53;3.42;;;;;;;37.58;28.04;98084.67;1689826;82;28075;-76
2021/06/19 09:15:49;;;;;;;3.75;3.20;;;;;;;37.70;27.31;98083.05;1693430;83;20989;-76
2021/06/19 09:18:21;;;;;;;3.27;2.98;;;;;;;37.98;26.24;98081.98;1719021;82;20961;-76
2021/06/19 09:20:53;;;;;;;4.00;3.40;;;;;;;38.04;24.48;98076.53;1718982;82;20994;-76
2021/06/19 09:23:35;;;;;;;3.47;3.10;;;;;;;38.08;23.89;98074.34;1718867;82;21890;-77
2021/06/19 09:26:14;;;;;;;4.40;2.87;;;;;;;38.04;24.81;98077.95;1719367;83;21037;-76
2021/06/19 09:29:06;;;;;;;4.72;3.27;;;;;;;38.62;23.94;98082.91;1733600;82;20994;-77
2021/06/19 09:31:51;;;;;;;3.65;3.00;;;;;;;38.36;22.90;98073.86;1718825;82;20974;-75
2021/06/19 09:34:21;;;;;;;4.20;3.08;;;;;;;37.97;23.82;98069.11;1718769;82;21064;-76
2021/06/19 09:37:00;;;;;;;3.72;3.10;;;;;;;38.96;22.79;98075.47;1718846;82;21839;-76
2021/06/19 09:39:31;;;;;;;4.87;3.05;;;;;;;38.96;22.03;98072.02;1718634;82;20910;-76
2021/06/19 09:42:04;;;;;;;6.90;3.12;;;;;;;39.09;22.23;98065.59;1719181;82;21061;-76
2021/06/19 09:44:47;;;;;;;5.85;3.10;;;;;;;39.74;21.40;98062.95;1690727;83;20993;-76
2021/06/19 09:47:17;;;;;;;5.92;2.70;;;;;;;40.12;22.16;98068.70;1718982;82;21029;-76
2021/06/19 09:49:46;;;;;;;5.08;3.02;;;;;;;39.17;21.07;98063.27;1718997;82;21457;-76
2021/06/19 09:52:13;;;;;;;11.43;3.72;;;;;;;39.92;20.39;98062.75;1690786;83;21009;-77
2021/06/19 09:54:45;;;;;;;3.40;2.75;;;;;;;40.56;20.29;98059.07;1719109;82;21010;-76
2021/06/19 09:57:17;;;;;;;5.55;3.30;;;;;;;40.96;19.46;98047.98;1718909;82;21388;-75
2021/06/19 09:59:43;;;;;;;10.32;3.42;;;;;;;39.73;20.26;98061.98;1718876;82;21014;-76
2021/06/19 10:02:22;;;;;;;6.12;3.55;;;;;;;39.70;21.25;98058.06;1719122;83;21345;-76
2021/06/19 10:04:51;;;;;;;9.08;3.35;;;;;;;38.56;21.64;98057.92;1715738;83;21049;-76
2021/06/19 10:07:20;;;;;;;6.72;2.83;;;;;;;39.16;21.64;98052.56;1773076;79;21247;-76
2021/06/19 10:10:09;;;;;;;6.47;4.55;;;;;;;40.35;20.79;98048.75;1762317;80;21334;-77
2021/06/19 10:12:36;;;;;;;8.48;3.80;;;;;;;40.83;20.49;98048.17;1732121;80;20992;-76
2021/06/19 10:15:08;;;;;;;5.15;2.67;;;;;;;41.76;19.50;98044.01;1716926;83;22271;-76
2021/06/19 10:17:38;;;;;;;6.70;3.30;;;;;;;42.70;18.17;98044.00;1723915;83;20963;-76
2021/06/19 10:20:07;;;;;;;4.75;3.10;;;;;;;41.66;19.32;98038.39;1723811;83;21014;-76
2021/06/19 10:22:34;;;;;;;3.65;2.83;;;;;;;41.94;19.19;98039.53;1728551;83;20956;-76
2021/06/19 10:25:09;;;;;;;3.47;2.60;;;;;;;41.60;19.25;98038.91;1730177;83;21046;-76
2021/06/19 10:27:38;;;;;;;6.35;2.62;;;;;;;41.29;19.69;98042.86;1729131;81;21195;-77
2021/06/19 10:30:06;;;;;;;4.67;2.80;;;;;;;42.03;18.96;98032.31;1726970;83;20916;-77
2021/06/19 10:32:50;;;;;;;4.25;3.25;;;;;;;42.59;18.78;98031.82;1699563;83;21000;-76
2021/06/19 10:35:22;;;;;;;4.50;3.02;;;;;;;42.61;19.31;98029.25;1728896;83;20954;-76
2021/06/19 10:37:50;;;;;;;7.37;3.10;;;;;;;43.20;17.86;98034.70;1729892;83;21025;-77
2021/06/19 10:40:28;;;;;;;5.22;2.47;;;;;;;43.12;19.12;98032.78;1729603;82;21864;-76
2021/06/19 10:43:21;;;;;;;5.67;2.87;;;;;;;42.53;18.88;98027.45;1729730;83;20979;-75
2021/06/19 10:45:46;;;;;;;8.45;3.02;;;;;;;43.00;19.00;98030.45;1728919;82;20938;-76
2021/06/19 10:48:13;;;;;;;9.88;3.00;;;;;;;42.78;18.77;98031.69;1729524;82;21495;-76
2021/06/19 10:50:45;;;;;;;5.90;2.90;;;;;;;43.32;18.52;98025.63;1729112;82;20988;-77
2021/06/19 10:53:16;;;;;;;8.20;3.42;;;;;;;43.04;18.54;98021.81;1728960;83;21406;-75
2021/06/19 10:55:52;;;;;;;5.87;4.83;;;;;;;43.10;18.80;98020.47;1696279;83;20985;-75
2021/06/19 10:58:29;;;;;;;6.97;3.80;;;;;;;43.76;17.94;98013.18;1721764;83;20877;-74
2021/06/19 11:01:01;;;;;;;4.92;2.40;;;;;;;43.88;17.61;98015.61;1721618;83;20960;-75
2021/06/19 11:03:48;;;;;;;3.45;2.30;;;;;;;43.65;18.15;98013.81;1701090;83;20932;-75
2021/06/19 11:06:24;;;;;;;8.73;3.27;;;;;;;44.04;17.29;98010.55;1678808;83;22913;-77
2021/06/19 11:09:03;;;;;;;7.53;2.98;;;;;;;43.83;17.51;98007.77;1720966;82;21027;-75
2021/06/19 11:11:58;;;;;;;7.15;2.90;;;;;;;44.01;17.52;98000.91;1712481;81;20972;-75
2021/06/19 11:14:46;;;;;;;5.85;2.60;;;;;;;40.89;20.48;97997.84;1742021;81;20950;-75
2021/06/19 11:17:25;;;;;;;4.67;2.42;;;;;;;40.70;20.45;97988.66;1747629;82;21430;-74
2021/06/19 11:19:59;;;;;;;4.15;2.30;;;;;;;39.94;21.21;97987.89;1716936;82;21394;-76
2021/06/19 11:22:42;;;;;;;4.03;2.45;;;;;;;41.18;20.32;97987.18;1714608;82;21356;-79
2021/06/19 11:25:26;;;;;;;28.12;4.20;;;;;;;39.10;22.20;97985.02;1716630;82;21090;-74
2021/06/19 11:27:56;;;;;;;6.83;2.37;;;;;;;39.15;22.35;97985.84;1666903;84;21385;-77
2021/06/19 11:30:39;;;;;;;47.23;4.33;;;;;;;39.88;21.88;97982.08;1687744;85;20996;-77
2021/06/19 11:33:26;;;;;;;10.13;3.12;;;;;;;41.22;20.15;97974.37;1687859;85;21075;-76